Here is the Quick Look data you requested

The Data originates at the National Weather Service, and is made available here by the UAlbany Department of Atmospheric and Environmental Sciences

Surface Observations

PAAQ 270953Z AUTO 35004KT 10SM CLR M14/M14 A2951 RMK AO2 SLP000 T11391144 TSNO=
PABA 270952Z AUTO 23005KT 10SM CLR M36/ A3022 RMK AO2 SLP243 T1361 FZRANO TSNO=
PABE 270953Z 03014KT 10SM CLR M21/M24 A2974 RMK AO2 SLP073 T12061244=
PABI 270953Z AUTO 26005KT 10SM CLR M19/M24 A2976 RMK AO2 SLP129 T11891239 TSNO=
PABL 270956Z AUTO 12006KT 10SM CLR M33/M36 A3005 RMK AO2 SLP180 T13331361
 FZRANO=
PABR 270953Z AUTO 20004KT 10SM R07/5000VP6000FT CLR M38/ A3015 RMK AO2 SLP212
 T1383 TSNO=
PABT 270953Z 33005KT 10SM CLR M29/M32 A2999 RMK AO2 SLP185 I1000 T12941317=
PABV 270956Z AUTO 14004KT 10SM CLR M14/M16 A2955 RMK AO2 SLP013 T11391156
 FZRANO=
PACD 270953Z AUTO 11003KT 10SM OVC006 M01/M02 A2964 RMK AO2 SLP037 T10061022
 TSNO=
PACV 270953Z 00000KT 10SM OVC095 M03/M04 A2946 RMK AO2 SLP977 T10281044=
PACZ 270955Z AUTO 10014KT 10SM CLR M09/M19 A2976 RMK AO2 SLP093 T10941189
 410681145=
PADE 270953Z AUTO 22003KT 10SM CLR M26/M36 A3000 RMK AO2 SLP161 T12611356 TSNO
 $=
PADK 270956Z AUTO 33008KT 10SM FEW022 SCT034 01/M01 A2955 RMK AO2 UPB12E49
 SLP005 P0000 T00061006 FZRANO $=
PADL 270956Z AUTO 12004KT 10SM OVC027 M08/M13 A2970 RMK AO2 SLP063 T10831133
 FZRANO PNO $=
PADQ 270953Z AUTO 33007KT 10SM CLR M01/M04 A2953 RMK AO2 SLP999 T10061044 TSNO=
PADU 270956Z AUTO 20003KT 10SM BKN040 02/M02 A2959 RMK AO2 SLP024 T00171017
 FZRANO=
PAED 270956Z AUTO 06004KT 10SM CLR M16/M18 A2952 RMK AO2 SLP995 T11561177 $=
PAEG 270953Z AUTO 17003KT 10SM OVC060 M26/M28 A2986 RMK AO2 SLP143 T12611283
 TSNO $=
PAEH 270955Z AUTO 16001KT 10SM CLR M07/M13 A2969 RMK AO2 SLP066 T10681133
 410511088=
PAEI 270956Z 00000KT 10SM CLR M29/M34 A2984 RMK AO2A SLP127 T12951336 $=
PAEN 270953Z AUTO 00000KT 10SM CLR M15/M17 A2954 RMK AO2 SLP007 T11501172 TSNO=
PAFA 270953Z 00000KT 10SM CLR M30/M33 A2985 RMK AO2 SLP126 T13001333=
PAFB 270958Z AUTO 00000KT 10SM CLR M31/M34 A2986 RMK AO2 SLP132 T13131341=
PAFM 270956Z AUTO 04006KT 10SM CLR M27/M30 A3004 RMK AO2 SLP187 T12721300
 FZRANO=
PAGA 270956Z 00000KT 10SM CLR M32/M34 A2997 RMK AO2 SLP154 T13171339 FZRANO=
PAGK 270953Z AUTO 00000KT 10SM CLR M27/M30 A2962 RMK AO2 SLP101 T12721300 TSNO
 $=
PAGM 270956Z AUTO 02004KT 10SM CLR M17/M19 A3001 RMK AO2 SLP171 T11671189
 FZRANO=
PAGS 270956Z AUTO 13011KT 10SM BKN040 OVC048 03/01 A2971 RMK AO2 SLP059
 T00330011=
PAGY 270953Z AUTO 22028G37KT 10SM FEW025 SCT055 BKN080 05/ A2960 RMK PK WND
 22037/0951 SLP023 T0050 TSNO VIA AUTODIAL=
PAHN 270903Z AUTO 09015G21KT 10SM BKN013 BKN023 OVC034 03/01 A2962 RMK RAE0855
 P0000 T00330011 TSNO VIA AUTODIAL=
PAHO 270953Z AUTO 00000KT 10SM BKN100 M07/M09 A2953 RMK AO2 SLP000 T10671089
 TSNO=
PAHP 270956Z AUTO 08009KT 10SM CLR M15/M20 A2980 RMK AO2 PRESFR SLP093
 T11501200 FZRANO $=
PAII 270956Z AUTO 35005KT 10SM OVC028 M09/M13 A2971 RMK AO2 SLP060 T10941128
 FZRANO=
PAIL 270953Z AUTO 10SM CLR M14/M19 A2962 RMK SLP037 T11441189 TSNO $ VIA
 AUTODIAL=
PAIM 270955Z AUTO 20004KT 10SM CLR M23/M26 A2986 RMK AO2 SLP167 T12331260=
PAIN 270956Z AUTO 00000KT 10SM CLR M31/M34 A2969 RMK AO2 SLP122 T13111339
 FZRANO=
PAJN 270953Z 09008KT 10SM SCT029 BKN034 OVC075 04/02 A2972 RMK AO2 RAE23B39E48
 SLP065 P0001 T00390017=
PAKK 270956Z AUTO 03008KT 10SM CLR M20/M24 A2989 RMK AO2 SLP136 T12001239
 FZRANO=
PAKN 270954Z 33006KT 10SM OVC120 M13/M18 A2964 RMK AO2 SLP040 T11281178=
PAKP 270956Z AUTO 22005KT 6SM HZ FEW002 M34/ A2982 RMK AO2 SLP204 T1344 FZRANO=
PAKT 270953Z AUTO 13012KT 5SM -RA BR FEW015 SCT020 OVC036 06/04 A2997 RMK
 SLP150 P0001 T00560044 TSNO VIA AUTODIAL=
PAKV 270953Z AUTO 00000KT 10SM CLR M32/M36 A2998 RMK SLP159 T13221356 TSNO $
 VIA AUTODIAL=
PAKW 270935Z AUTO 16009G16KT 10SM FEW023 BKN030 OVC040 06/03 A2987 RMK RAE01
 P0000 T00560033 TSNO VIA AUTODIAL=
PALH 270953Z 00000KT 10SM CLR M13/M15 A2954 RMK AO2 SLP005 T11281150=
PALU 270955Z AUTO VRB06KT 10SM CLR M27/M30 A3005 RMK AO2 SLP178 T12721300
 412501274=
PAMC 270953Z AUTO 31007KT 10SM CLR M32/M34 A2983 RMK AO2 SLP116 T13221339 TSNO=
PAMD 270951Z AUTO 04019G25KT 10SM -RA OVC007 02/01 A2939 RMK AO2 UPB02E12RAB49
 SLP941 P0000 T00220011 FZRANO=
PAMH 270956Z AUTO VRB03KT 10SM CLR M21/M24 A2980 RMK AO2 SLP104 T12061239
 FZRANO=
PAMM 270956Z AUTO 15006KT 8SM -RA BKN030 OVC038 06/04 A2999 RMK AO2 SLP145
 P0002 T00610044 $=
PAMR 270953Z 00000KT 10SM CLR M13/M16 A2953 RMK AO2 SLP003 T11331161 $=
PAMY 270956Z AUTO VRB04KT 10SM CLR M17/M18 A2979 RMK AO2 SLP089 T11671183
 FZRANO=
PANC 270953Z 00000KT 10SM CLR M11/M12 A2953 RMK AO2 SLP003 I1000 T11061122=
PANI 270956Z AUTO VRB04KT 10SM CLR M19/M24 A2978 RMK AO2 SLP088 T11891239
 FZRANO=
PANN 270953Z AUTO 00000KT 10SM CLR M32/M36 A2984 RMK AO2 SLP123 T13171356 TSNO=
PANV 270956Z AUTO 03011KT 10SM CLR M19/M22 A2982 RMK AO2 SLP243 T11891222
 FZRANO TSNO=
PAOH 270956Z AUTO 00000KT 10SM FEW001 BKN040 OVC060 01/01 A2971 RMK AO2 SLP061
 P0001 T00060006 PWINO FZRANO $=
PAOM 270953Z AUTO 00000KT 10SM CLR M24/M27 A2993 RMK AO2 SLP135 T12441272 TSNO=
PAOT 270953Z AUTO 07004KT 10SM CLR M29/M31 A3002 RMK SLP165 T12941311 TSNO VIA
 AUTODIAL=
PAPB 270953Z AUTO 11008KT 10SM OVC050 01/00 A2958 RMK AO2 SLP005 T00060000 TSNO=
PAPG 270956Z AUTO 10004KT 7SM -RA BKN020 OVC027 04/03 A2986 RMK AO2 SLP116
 P0003 T00440033=
PAPH 270956Z AUTO 00000KT 9SM OVC004 M07/M08 A2977 RMK AO2 SLP084 T10671078
 FZRANO=
PAPO 270956Z AUTO 08004KT 10SM CLR M28/M31 A3004 RMK AO2 SLP172 T12781306
 FZRANO=
PAQT 270953Z AUTO 20003KT 10SM CLR M41/ A3020 RMK AO2 SLP230 I1000 T1406 TSNO
 PNO=
PARC 270956Z AUTO 32003KT 4SM HZ CLR M36/ A2985 RMK AO2 SLP214 T1356 FZRANO=
PASA 270956Z AUTO 00000KT 10SM M22/M24 A3001 RMK AO2 SLP165 T12221244 FZRANO $=
PASC 270953Z 24005KT 10SM CLR M42/ A3018 RMK AO2 SLP226 T1417 $=
PASD 270956Z AUTO 00000KT 10SM SCT023 M04/M05 A2968 RMK AO2 SLP052 T10391050
 FZRANO=
PASI 270953Z 12009KT 9SM BKN028 OVC036 04/01 A2973 RMK AO2 RAB03E12 SLP068
 P0000 T00440011=
PASK 270956Z AUTO 07004KT 10SM BKN003 M35/ A3006 RMK AO2 SLP177 T1350 FZRANO=
PASL 270956Z AUTO VRB03KT 10SM CLR M19/M23 A2980 RMK AO2 SLP085 T11891233
 FZRANO=
PASM 271002Z AUTO 06015KT 10SM CLR M14/M21 A2981 RMK AO2 SLP109 T11391211
 FZRANO=
PASN 270912Z AUTO 08005KT 6SM BR SCT009 OVC050 01/M01 A2958 RMK T00111006
 FZRANO TSNO $ VIA AUTODIAL=
PASO 270953Z AUTO 00000KT 10SM OVC022 M03/M04 A2953 RMK AO2 SNE00 SLP999 P0000
 T10281044 TSNO=
PASV 270955Z AUTO 00000KT 10SM CLR M19/M23 A2954 RMK AO2 SLP064 T11931232
 411531208=
PASX 270956Z AUTO 04003KT 10SM CLR M17/M18 A2957 RMK AO2 SLP022 T11671183
 FZRANO=
PASY 270955Z 33004KT 7SM FEW012 SCT020 BKN060 OVC090 01/00 A2953 RMK AO2A
 SLP001 T00090000 400320002 RVRNO FZRANO PNO $=
PATA 270952Z AUTO 29003KT 10SM CLR M34/M37 A2994 RMK AO2 SLP151 I1000 T13391372
 TSNO=
PATC 270955Z AUTO 04019KT 10SM CLR M24/M27 A2994 RMK AO2 SLP153 T12431268
 412071263=
PATG 270956Z AUTO 34004KT 10SM OVC034 M09/M13 A2970 RMK AO2 SLP154 T10891128
 FZRANO=
PATK 270953Z AUTO 36004KT 10SM CLR M08/M16 A2953 RMK AO2 SLP008 T10781156 TSNO
 $=
PATL 270955Z AUTO 03004KT 10SM CLR M20/M24 A2978 RMK AO2 SLP126 T12011240
 411471209=
PATO 270933Z AUTO 28003KT FEW001 BKN006 M12/M13 A2952 RMK T11171128 TSNO $ VIA
 AUTODIAL=
PAUN 270956Z AUTO 06011KT 10SM CLR M18/M22 A2993 RMK AO2 SLP140 T11831217
 FZRANO=
PAVD 270956Z AUTO 00000KT 10SM BKN120 M09/M13 A2960 RMK AO2 SLP023 T10941128
 FZRANO=
PAWD 270953Z AUTO 10SM FEW065 M03/M08 A2947 RMK AO2 SLP980 T10281078 TSNO $=
PAWI 270923Z AUTO 10006KT FEW002 M38/ A3010 RMK T1383 TSNO PNO $ VIA AUTODIAL=
PAWN 270956Z AUTO 34003KT 10SM CLR M33/M36 A3004 RMK AO2 SLP189 T13331361
 FZRANO=
PAWS 270956Z AUTO VRB04KT 10SM CLR M12/M14 A2953 RMK AO2 SLP009 T11171144
 FZRANO=
PAYA 270953Z AUTO 09011KT 4SM -RA BR BKN010 OVC014 02/01 A2952 RMK AO2
 RAB0855UPB44E45SNE0855B19E26 SLP997 P0004 T00170006 TSNO=
PAZK 270956Z AUTO 04005KT 10SM BKN011 M18/M19 A2941 RMK AO2 SLP049 T11781194
 FZRANO=
PPIZ 270956Z AUTO 01007KT 10SM CLR M38/ A3006 RMK AO2 SLP184 T1378 FZRANO=